sensor_id;sensor_type;location;lat;lon;timestamp;pressure;altitude;pressure_sealevel;temperature;humidity
43934;BME280;59081;42.706;23.306;2023-04-20T00:00:49;94815.19;;;9.17;78.36
43934;BME280;59081;42.706;23.306;2023-04-20T00:03:15;94671.97;;;8.19;78.28
43934;BME280;59081;42.706;23.306;2023-04-20T00:05:46;94665.00;;;8.31;78.45
43934;BME280;59081;42.706;23.306;2023-04-20T00:08:14;94897.84;;;9.77;77.51
43934;BME280;59081;42.706;23.306;2023-04-20T00:10:42;94829.28;;;9.32;78.39
43934;BME280;59081;42.706;23.306;2023-04-20T00:13:08;94827.31;;;9.32;78.20
43934;BME280;59081;42.706;23.306;2023-04-20T00:15:33;94787.91;;;9.10;78.60
43934;BME280;59081;42.706;23.306;2023-04-20T00:17:59;94722.88;;;8.65;78.39
43934;BME280;59081;42.706;23.306;2023-04-20T00:20:24;94683.50;;;8.43;78.27
43934;BME280;59081;42.706;23.306;2023-04-20T00:22:50;94891.44;;;9.55;79.24
43934;BME280;59081;42.706;23.306;2023-04-20T00:25:16;94672.22;;;8.25;79.39
43934;BME280;59081;42.706;23.306;2023-04-20T00:27:42;94826.28;;;9.14;78.99
43934;BME280;59081;42.706;23.306;2023-04-20T00:30:12;94776.97;;;8.81;79.18
43934;BME280;59081;42.706;23.306;2023-04-20T00:32:37;94874.91;;;9.42;79.78
43934;BME280;59081;42.706;23.306;2023-04-20T00:35:03;94741.94;;;8.56;80.40
43934;BME280;59081;42.706;23.306;2023-04-20T00:37:29;94760.63;;;8.61;80.14
43934;BME280;59081;42.706;23.306;2023-04-20T00:39:56;94686.66;;;8.13;79.79
43934;BME280;59081;42.706;23.306;2023-04-20T00:42:21;94789.91;;;8.81;80.35
43934;BME280;59081;42.706;23.306;2023-04-20T00:44:50;94823.34;;;8.92;79.37
43934;BME280;59081;42.706;23.306;2023-04-20T00:47:16;94700.06;;;7.94;80.23
43934;BME280;59081;42.706;23.306;2023-04-20T00:49:41;94746.47;;;8.34;80.51
43934;BME280;59081;42.706;23.306;2023-04-20T00:52:07;94729.94;;;8.21;80.52
43934;BME280;59081;42.706;23.306;2023-04-20T00:54:37;94829.91;;;8.82;80.27
43934;BME280;59081;42.706;23.306;2023-04-20T00:57:03;94730.44;;;8.16;81.15
43934;BME280;59081;42.706;23.306;2023-04-20T00:59:29;94715.03;;;8.06;81.84
43934;BME280;59081;42.706;23.306;2023-04-20T01:01:54;94866.81;;;9.10;82.34
43934;BME280;59081;42.706;23.306;2023-04-20T01:04:20;94722.00;;;8.11;81.84
43934;BME280;59081;42.706;23.306;2023-04-20T01:06:46;94713.94;;;8.03;82.50
43934;BME280;59081;42.706;23.306;2023-04-20T01:09:11;94766.69;;;8.40;82.25
43934;BME280;59081;42.706;23.306;2023-04-20T01:11:37;94700.34;;;7.84;82.16
43934;BME280;59081;42.706;23.306;2023-04-20T01:14:03;94742.78;;;8.24;82.61
43934;BME280;59081;42.706;23.306;2023-04-20T01:16:29;94690.56;;;7.83;82.64
43934;BME280;59081;42.706;23.306;2023-04-20T01:18:55;94719.50;;;8.00;83.10
43934;BME280;59081;42.706;23.306;2023-04-20T01:21:21;94792.50;;;8.43;83.78
43934;BME280;59081;42.706;23.306;2023-04-20T01:23:47;94813.78;;;8.67;83.31
43934;BME280;59081;42.706;23.306;2023-04-20T01:26:14;94763.97;;;8.40;82.51
43934;BME280;59081;42.706;23.306;2023-04-20T01:28:40;94690.41;;;7.90;82.81
43934;BME280;59081;42.706;23.306;2023-04-20T01:31:07;94853.91;;;8.94;82.98
43934;BME280;59081;42.706;23.306;2023-04-20T01:33:33;94868.97;;;9.02;83.79
43934;BME280;59081;42.706;23.306;2023-04-20T01:35:59;94716.69;;;8.03;82.97
43934;BME280;59081;42.706;23.306;2023-04-20T01:38:25;94661.84;;;7.87;82.78
43934;BME280;59081;42.706;23.306;2023-04-20T01:40:52;94837.88;;;9.05;82.55
43934;BME280;59081;42.706;23.306;2023-04-20T01:43:19;94850.31;;;9.10;81.00
43934;BME280;59081;42.706;23.306;2023-04-20T01:45:45;94848.25;;;8.85;81.33
43934;BME280;59081;42.706;23.306;2023-04-20T01:48:10;94589.09;;;7.09;82.04
43934;BME280;59081;42.706;23.306;2023-04-20T01:50:35;94679.44;;;7.74;82.23
43934;BME280;59081;42.706;23.306;2023-04-20T01:53:01;94802.53;;;8.49;82.07
43934;BME280;59081;42.706;23.306;2023-04-20T01:55:27;94840.34;;;8.58;82.66
43934;BME280;59081;42.706;23.306;2023-04-20T01:57:52;94715.00;;;7.77;82.66
43934;BME280;59081;42.706;23.306;2023-04-20T02:00:18;94709.84;;;7.63;83.78
43934;BME280;59081;42.706;23.306;2023-04-20T02:02:43;94716.56;;;7.78;83.52
43934;BME280;59081;42.706;23.306;2023-04-20T02:05:09;94796.72;;;8.31;83.42
43934;BME280;59081;42.706;23.306;2023-04-20T02:07:35;94647.81;;;7.40;83.18
43934;BME280;59081;42.706;23.306;2023-04-20T02:10:02;94843.47;;;8.72;83.64
43934;BME280;59081;42.706;23.306;2023-04-20T02:12:27;94779.06;;;8.32;83.02
43934;BME280;59081;42.706;23.306;2023-04-20T02:14:53;94714.22;;;7.93;82.97
43934;BME280;59081;42.706;23.306;2023-04-20T02:17:18;94722.41;;;8.09;82.48
43934;BME280;59081;42.706;23.306;2023-04-20T02:19:44;94695.59;;;8.00;82.77
43934;BME280;59081;42.706;23.306;2023-04-20T02:22:09;94737.56;;;8.30;82.48
43934;BME280;59081;42.706;23.306;2023-04-20T02:24:35;94674.50;;;7.97;82.13
43934;BME280;59081;42.706;23.306;2023-04-20T02:27:01;94756.50;;;8.41;81.89
43934;BME280;59081;42.706;23.306;2023-04-20T02:29:26;94674.03;;;7.86;82.28
43934;BME280;59081;42.706;23.306;2023-04-20T02:31:52;94748.06;;;8.31;82.52
43934;BME280;59081;42.706;23.306;2023-04-20T02:34:17;94742.44;;;8.38;81.43
43934;BME280;59081;42.706;23.306;2023-04-20T02:36:43;94765.84;;;8.43;81.40
43934;BME280;59081;42.706;23.306;2023-04-20T02:39:08;94843.09;;;8.87;81.44
43934;BME280;59081;42.706;23.306;2023-04-20T02:41:34;94691.69;;;7.69;82.60
43934;BME280;59081;42.706;23.306;2023-04-20T02:44:00;94594.47;;;7.12;81.99
43934;BME280;59081;42.706;23.306;2023-04-20T02:46:25;94781.53;;;8.43;81.62
43934;BME280;59081;42.706;23.306;2023-04-20T02:48:51;94728.59;;;7.81;81.93
43934;BME280;59081;42.706;23.306;2023-04-20T02:51:16;94663.28;;;7.47;82.01
43934;BME280;59081;42.706;23.306;2023-04-20T02:53:42;94753.00;;;8.24;82.21
43934;BME280;59081;42.706;23.306;2023-04-20T02:56:07;94709.72;;;7.99;81.98
43934;BME280;59081;42.706;23.306;2023-04-20T02:58:32;94848.59;;;8.87;82.08
43934;BME280;59081;42.706;23.306;2023-04-20T03:01:01;94790.50;;;8.59;82.15
43934;BME280;59081;42.706;23.306;2023-04-20T03:03:29;94704.84;;;8.07;81.82
43934;BME280;59081;42.706;23.306;2023-04-20T03:05:54;94840.06;;;8.97;81.65
43934;BME280;59081;42.706;23.306;2023-04-20T03:08:21;94672.75;;;7.91;81.27
43934;BME280;59081;42.706;23.306;2023-04-20T03:10:46;94759.56;;;8.43;80.81
43934;BME280;59081;42.706;23.306;2023-04-20T03:13:12;94649.38;;;7.70;81.03
43934;BME280;59081;42.706;23.306;2023-04-20T03:15:37;94642.19;;;7.76;80.85
43934;BME280;59081;42.706;23.306;2023-04-20T03:18:03;94845.13;;;8.99;80.81
43934;BME280;59081;42.706;23.306;2023-04-20T03:20:29;94686.88;;;7.89;81.42
43934;BME280;59081;42.706;23.306;2023-04-20T03:22:55;94805.91;;;8.69;81.50
43934;BME280;59081;42.706;23.306;2023-04-20T03:25:21;94692.53;;;7.82;81.77
43934;BME280;59081;42.706;23.306;2023-04-20T03:27:46;94785.09;;;8.56;82.02
43934;BME280;59081;42.706;23.306;2023-04-20T03:30:12;94748.06;;;8.31;81.67
43934;BME280;59081;42.706;23.306;2023-04-20T03:32:38;94728.75;;;8.06;82.53
43934;BME280;59081;42.706;23.306;2023-04-20T03:35:04;94718.91;;;8.09;82.12
43934;BME280;59081;42.706;23.306;2023-04-20T03:37:30;94791.19;;;8.63;81.39
43934;BME280;59081;42.706;23.306;2023-04-20T03:39:56;94683.66;;;7.62;81.53
43934;BME280;59081;42.706;23.306;2023-04-20T03:42:21;94821.19;;;8.70;80.99
43934;BME280;59081;42.706;23.306;2023-04-20T03:44:46;94708.66;;;7.80;80.90
43934;BME280;59081;42.706;23.306;2023-04-20T03:47:12;94697.94;;;7.86;81.40
43934;BME280;59081;42.706;23.306;2023-04-20T03:49:37;94741.19;;;8.11;81.18
43934;BME280;59081;42.706;23.306;2023-04-20T03:52:04;94722.44;;;7.93;82.18
43934;BME280;59081;42.706;23.306;2023-04-20T03:54:29;94783.50;;;8.42;81.44
43934;BME280;59081;42.706;23.306;2023-04-20T03:56:55;94682.13;;;7.77;81.49
43934;BME280;59081;42.706;23.306;2023-04-20T03:59:21;94856.91;;;8.83;81.98
43934;BME280;59081;42.706;23.306;2023-04-20T04:01:46;94710.50;;;7.99;81.53
43934;BME280;59081;42.706;23.306;2023-04-20T04:04:12;94842.22;;;8.90;82.03
43934;BME280;59081;42.706;23.306;2023-04-20T04:06:37;94653.31;;;7.69;81.50
43934;BME280;59081;42.706;23.306;2023-04-20T04:09:03;94711.19;;;8.03;81.48
43934;BME280;59081;42.706;23.306;2023-04-20T04:11:28;94797.75;;;8.66;80.76
43934;BME280;59081;42.706;23.306;2023-04-20T04:13:56;94634.84;;;7.57;80.05
43934;BME280;59081;42.706;23.306;2023-04-20T04:16:21;94868.84;;;8.93;80.74
43934;BME280;59081;42.706;23.306;2023-04-20T04:18:47;94875.28;;;8.86;81.62
43934;BME280;59081;42.706;23.306;2023-04-20T04:21:12;94743.56;;;8.25;80.83
43934;BME280;59081;42.706;23.306;2023-04-20T04:23:38;94656.84;;;7.53;80.43
43934;BME280;59081;42.706;23.306;2023-04-20T04:26:03;94827.22;;;8.65;81.18
43934;BME280;59081;42.706;23.306;2023-04-20T04:28:30;94728.25;;;8.11;80.81
43934;BME280;59081;42.706;23.306;2023-04-20T04:30:56;94706.22;;;7.98;80.95
43934;BME280;59081;42.706;23.306;2023-04-20T04:33:22;94821.34;;;8.80;81.05
43934;BME280;59081;42.706;23.306;2023-04-20T04:35:49;94857.28;;;9.14;80.84
43934;BME280;59081;42.706;23.306;2023-04-20T04:38:15;94758.41;;;8.56;80.33
43934;BME280;59081;42.706;23.306;2023-04-20T04:40:40;94824.69;;;9.00;80.33
43934;BME280;59081;42.706;23.306;2023-04-20T04:43:10;94870.72;;;9.37;80.39
43934;BME280;59081;42.706;23.306;2023-04-20T04:45:39;94867.44;;;9.42;80.53
43934;BME280;59081;42.706;23.306;2023-04-20T04:48:07;94866.00;;;9.38;80.35
43934;BME280;59081;42.706;23.306;2023-04-20T04:50:38;94709.84;;;8.24;79.91
43934;BME280;59081;42.706;23.306;2023-04-20T04:53:04;94678.66;;;8.18;79.64
43934;BME280;59081;42.706;23.306;2023-04-20T04:55:29;94877.44;;;9.36;79.98
43934;BME280;59081;42.706;23.306;2023-04-20T04:57:55;94805.13;;;8.98;79.84
43934;BME280;59081;42.706;23.306;2023-04-20T05:00:22;94881.19;;;9.42;80.44
43934;BME280;59081;42.706;23.306;2023-04-20T05:02:47;94722.78;;;8.40;80.27
43934;BME280;59081;42.706;23.306;2023-04-20T05:05:13;94735.41;;;8.37;80.11
43934;BME280;59081;42.706;23.306;2023-04-20T05:07:39;94748.44;;;8.62;80.12
43934;BME280;59081;42.706;23.306;2023-04-20T05:10:05;94849.69;;;9.18;81.11
43934;BME280;59081;42.706;23.306;2023-04-20T05:12:31;94781.34;;;8.79;80.91
43934;BME280;59081;42.706;23.306;2023-04-20T05:14:57;94782.41;;;8.68;79.81
43934;BME280;59081;42.706;23.306;2023-04-20T05:17:23;94711.31;;;8.29;79.62
43934;BME280;59081;42.706;23.306;2023-04-20T05:19:48;94670.22;;;8.13;79.64
43934;BME280;59081;42.706;23.306;2023-04-20T05:22:14;94756.97;;;8.81;79.47
43934;BME280;59081;42.706;23.306;2023-04-20T05:24:39;94694.56;;;8.40;79.14
43934;BME280;59081;42.706;23.306;2023-04-20T05:27:06;94825.41;;;9.29;78.63
43934;BME280;59081;42.706;23.306;2023-04-20T05:29:32;94720.66;;;8.60;78.40
43934;BME280;59081;42.706;23.306;2023-04-20T05:31:57;94725.06;;;8.70;77.67
43934;BME280;59081;42.706;23.306;2023-04-20T05:34:23;94809.91;;;9.23;77.54
43934;BME280;59081;42.706;23.306;2023-04-20T05:36:48;94900.06;;;9.82;77.58
43934;BME280;59081;42.706;23.306;2023-04-20T05:39:14;94740.94;;;8.92;77.54
43934;BME280;59081;42.706;23.306;2023-04-20T05:41:40;94692.34;;;8.63;77.49
43934;BME280;59081;42.706;23.306;2023-04-20T05:44:05;94763.84;;;9.14;78.07
43934;BME280;59081;42.706;23.306;2023-04-20T05:46:31;94709.50;;;8.80;77.60
43934;BME280;59081;42.706;23.306;2023-04-20T05:48:56;94811.59;;;9.46;77.65
43934;BME280;59081;42.706;23.306;2023-04-20T05:51:24;94731.16;;;8.91;77.94
43934;BME280;59081;42.706;23.306;2023-04-20T05:53:53;94846.66;;;9.41;77.59
43934;BME280;59081;42.706;23.306;2023-04-20T05:56:18;94767.28;;;8.89;77.69
43934;BME280;59081;42.706;23.306;2023-04-20T05:58:44;94736.00;;;8.45;78.29
43934;BME280;59081;42.706;23.306;2023-04-20T06:01:09;94862.63;;;9.47;78.94
43934;BME280;59081;42.706;23.306;2023-04-20T06:03:35;94787.75;;;9.01;79.53
43934;BME280;59081;42.706;23.306;2023-04-20T06:06:01;94806.25;;;9.13;80.41
43934;BME280;59081;42.706;23.306;2023-04-20T06:08:26;94902.88;;;9.53;81.56
43934;BME280;59081;42.706;23.306;2023-04-20T06:10:55;94903.25;;;9.68;81.55
43934;BME280;59081;42.706;23.306;2023-04-20T06:13:21;94799.91;;;9.16;80.89
43934;BME280;59081;42.706;23.306;2023-04-20T06:15:47;94796.72;;;9.18;80.59
43934;BME280;59081;42.706;23.306;2023-04-20T06:18:12;94899.81;;;9.64;79.99
43934;BME280;59081;42.706;23.306;2023-04-20T06:20:38;94787.28;;;8.90;80.49
43934;BME280;59081;42.706;23.306;2023-04-20T06:23:04;94889.50;;;9.68;80.83
43934;BME280;59081;42.706;23.306;2023-04-20T06:25:30;94869.44;;;9.55;80.27
43934;BME280;59081;42.706;23.306;2023-04-20T06:27:55;94880.03;;;9.69;80.91
43934;BME280;59081;42.706;23.306;2023-04-20T06:30:21;94790.66;;;9.10;80.34
43934;BME280;59081;42.706;23.306;2023-04-20T06:32:46;94909.44;;;9.97;80.21
43934;BME280;59081;42.706;23.306;2023-04-20T06:35:12;94759.31;;;8.95;80.21
43934;BME280;59081;42.706;23.306;2023-04-20T06:37:37;94906.44;;;10.04;80.27
43934;BME280;59081;42.706;23.306;2023-04-20T06:40:05;94912.97;;;9.98;79.92
43934;BME280;59081;42.706;23.306;2023-04-20T06:42:33;94742.72;;;8.98;79.46
43934;BME280;59081;42.706;23.306;2023-04-20T06:44:59;94811.16;;;9.34;79.41
43934;BME280;59081;42.706;23.306;2023-04-20T06:47:25;94784.28;;;9.13;80.35
43934;BME280;59081;42.706;23.306;2023-04-20T06:50:00;94910.31;;;9.82;83.50
43934;BME280;59081;42.706;23.306;2023-04-20T06:52:26;94925.59;;;9.83;85.21
43934;BME280;59081;42.706;23.306;2023-04-20T06:54:52;94763.69;;;8.92;85.55
43934;BME280;59081;42.706;23.306;2023-04-20T06:57:18;94813.09;;;9.21;84.81
43934;BME280;59081;42.706;23.306;2023-04-20T06:59:43;94741.34;;;8.78;85.36
43934;BME280;59081;42.706;23.306;2023-04-20T07:02:09;94789.88;;;9.10;86.58
43934;BME280;59081;42.706;23.306;2023-04-20T07:04:34;94759.59;;;8.84;86.46
43934;BME280;59081;42.706;23.306;2023-04-20T07:07:00;94680.16;;;8.35;86.36
43934;BME280;59081;42.706;23.306;2023-04-20T07:09:26;94795.94;;;9.17;86.59
43934;BME280;59081;42.706;23.306;2023-04-20T07:11:51;94941.13;;;10.02;86.21
43934;BME280;59081;42.706;23.306;2023-04-20T07:14:17;94802.66;;;9.29;84.93
43934;BME280;59081;42.706;23.306;2023-04-20T07:16:42;94749.72;;;8.87;84.38
43934;BME280;59081;42.706;23.306;2023-04-20T07:19:08;94736.66;;;8.91;85.03
43934;BME280;59081;42.706;23.306;2023-04-20T07:21:33;94826.34;;;9.64;83.48
43934;BME280;59081;42.706;23.306;2023-04-20T07:24:00;94743.06;;;9.13;84.13
43934;BME280;59081;42.706;23.306;2023-04-20T07:26:26;94692.59;;;8.82;84.60
43934;BME280;59081;42.706;23.306;2023-04-20T07:28:51;94798.06;;;9.51;84.24
43934;BME280;59081;42.706;23.306;2023-04-20T07:31:17;94879.06;;;10.26;84.49
43934;BME280;59081;42.706;23.306;2023-04-20T07:33:43;94918.28;;;10.77;80.50
43934;BME280;59081;42.706;23.306;2023-04-20T07:36:08;94878.16;;;10.42;80.33
43934;BME280;59081;42.706;23.306;2023-04-20T07:38:34;94832.59;;;10.28;79.67
43934;BME280;59081;42.706;23.306;2023-04-20T07:41:01;94863.19;;;10.77;79.36
43934;BME280;59081;42.706;23.306;2023-04-20T07:43:26;94824.47;;;10.59;79.05
43934;BME280;59081;42.706;23.306;2023-04-20T07:45:52;94788.84;;;10.43;77.79
43934;BME280;59081;42.706;23.306;2023-04-20T07:48:17;94766.31;;;10.57;75.47
43934;BME280;59081;42.706;23.306;2023-04-20T07:50:43;94743.06;;;10.58;73.62
43934;BME280;59081;42.706;23.306;2023-04-20T07:53:08;94776.72;;;10.97;72.25
43934;BME280;59081;42.706;23.306;2023-04-20T07:55:34;94853.84;;;11.62;70.60
43934;BME280;59081;42.706;23.306;2023-04-20T07:58:00;94905.28;;;12.00;71.32
43934;BME280;59081;42.706;23.306;2023-04-20T08:00:25;94772.16;;;11.03;69.36
43934;BME280;59081;42.706;23.306;2023-04-20T08:02:51;94787.53;;;11.13;69.90
43934;BME280;59081;42.706;23.306;2023-04-20T08:05:17;94808.84;;;11.43;70.11
43934;BME280;59081;42.706;23.306;2023-04-20T08:07:43;94846.53;;;11.90;69.37
43934;BME280;59081;42.706;23.306;2023-04-20T08:10:08;94739.53;;;11.01;69.19
43934;BME280;59081;42.706;23.306;2023-04-20T08:12:34;94736.41;;;10.90;68.93
43934;BME280;59081;42.706;23.306;2023-04-20T08:15:01;94823.94;;;11.61;68.82
43934;BME280;59081;42.706;23.306;2023-04-20T08:17:29;94805.47;;;11.39;69.53
43934;BME280;59081;42.706;23.306;2023-04-20T08:19:55;94749.59;;;10.95;69.68
43934;BME280;59081;42.706;23.306;2023-04-20T08:22:20;94799.75;;;11.34;69.99
43934;BME280;59081;42.706;23.306;2023-04-20T08:24:51;94794.88;;;11.07;70.07
43934;BME280;59081;42.706;23.306;2023-04-20T08:27:17;94817.72;;;10.95;70.79
43934;BME280;59081;42.706;23.306;2023-04-20T08:29:42;94934.81;;;11.68;70.83
43934;BME280;59081;42.706;23.306;2023-04-20T08:32:08;94884.28;;;11.28;71.95
43934;BME280;59081;42.706;23.306;2023-04-20T08:34:34;94938.34;;;11.69;72.35
43934;BME280;59081;42.706;23.306;2023-04-20T08:36:59;94775.94;;;10.74;70.82
43934;BME280;59081;42.706;23.306;2023-04-20T08:39:25;94794.44;;;10.74;70.66
43934;BME280;59081;42.706;23.306;2023-04-20T08:41:51;94942.19;;;11.49;70.07
43934;BME280;59081;42.706;23.306;2023-04-20T08:44:18;94809.56;;;10.35;71.40
43934;BME280;59081;42.706;23.306;2023-04-20T08:46:46;94943.16;;;11.56;71.27
43934;BME280;59081;42.706;23.306;2023-04-20T08:49:14;94812.72;;;10.80;70.91
43934;BME280;59081;42.706;23.306;2023-04-20T08:51:40;94803.81;;;10.76;70.14
43934;BME280;59081;42.706;23.306;2023-04-20T08:54:06;94917.94;;;11.44;70.66
43934;BME280;59081;42.706;23.306;2023-04-20T08:56:36;94884.41;;;11.24;70.50
43934;BME280;59081;42.706;23.306;2023-04-20T08:59:02;94862.22;;;11.28;69.29
43934;BME280;59081;42.706;23.306;2023-04-20T09:01:29;94695.88;;;10.12;69.78
43934;BME280;59081;42.706;23.306;2023-04-20T09:03:55;94953.03;;;11.66;69.06
43934;BME280;59081;42.706;23.306;2023-04-20T09:06:21;94958.41;;;11.47;69.54
43934;BME280;59081;42.706;23.306;2023-04-20T09:08:47;94891.06;;;11.14;69.73
43934;BME280;59081;42.706;23.306;2023-04-20T09:14:06;94950.31;;;11.31;70.38
43934;BME280;59081;42.706;23.306;2023-04-20T09:16:34;94941.59;;;11.33;70.57
43934;BME280;59081;42.706;23.306;2023-04-20T09:19:01;94848.03;;;10.95;70.88
43934;BME280;59081;42.706;23.306;2023-04-20T09:21:27;94934.78;;;11.81;70.46
43934;BME280;59081;42.706;23.306;2023-04-20T09:24:02;94882.28;;;11.72;69.78
43934;BME280;59081;42.706;23.306;2023-04-20T09:26:31;94881.66;;;11.99;67.95
43934;BME280;59081;42.706;23.306;2023-04-20T09:28:58;94923.13;;;12.48;66.22
43934;BME280;59081;42.706;23.306;2023-04-20T09:31:23;94818.97;;;12.08;66.05
43934;BME280;59081;42.706;23.306;2023-04-20T09:33:57;94783.13;;;12.27;64.78
43934;BME280;59081;42.706;23.306;2023-04-20T09:36:23;94705.66;;;12.12;62.46
43934;BME280;59081;42.706;23.306;2023-04-20T09:39:00;94820.06;;;13.15;62.34
43934;BME280;59081;42.706;23.306;2023-04-20T09:41:29;94839.09;;;12.95;62.57
43934;BME280;59081;42.706;23.306;2023-04-20T09:43:55;94771.66;;;12.65;62.43
43934;BME280;59081;42.706;23.306;2023-04-20T09:46:21;94823.72;;;13.30;62.93
43934;BME280;59081;42.706;23.306;2023-04-20T09:48:47;94755.81;;;13.20;61.43
43934;BME280;59081;42.706;23.306;2023-04-20T09:51:13;94761.66;;;13.31;60.48
43934;BME280;59081;42.706;23.306;2023-04-20T09:53:39;94664.63;;;12.93;58.85
43934;BME280;59081;42.706;23.306;2023-04-20T09:56:05;94853.13;;;14.21;58.88
43934;BME280;59081;42.706;23.306;2023-04-20T09:58:31;94814.63;;;13.99;57.95
43934;BME280;59081;42.706;23.306;2023-04-20T10:00:56;94909.34;;;14.12;58.86
43934;BME280;59081;42.706;23.306;2023-04-20T10:03:22;94796.19;;;13.36;59.23
43934;BME280;59081;42.706;23.306;2023-04-20T10:05:48;94744.16;;;13.16;59.33
43934;BME280;59081;42.706;23.306;2023-04-20T10:08:13;94746.91;;;13.25;58.47
43934;BME280;59081;42.706;23.306;2023-04-20T10:10:48;94758.72;;;13.77;57.71
43934;BME280;59081;42.706;23.306;2023-04-20T10:13:15;94711.19;;;13.78;57.21
43934;BME280;59081;42.706;23.306;2023-04-20T10:15:43;94818.53;;;14.73;55.61
43934;BME280;59081;42.706;23.306;2023-04-20T10:18:21;94889.78;;;14.82;56.13
43934;BME280;59081;42.706;23.306;2023-04-20T10:21:04;94875.63;;;14.80;56.36
43934;BME280;59081;42.706;23.306;2023-04-20T10:23:30;94735.75;;;13.85;55.66
43934;BME280;59081;42.706;23.306;2023-04-20T10:25:59;94812.81;;;14.20;56.75
43934;BME280;59081;42.706;23.306;2023-04-20T10:28:46;94868.09;;;14.80;55.29
43934;BME280;59081;42.706;23.306;2023-04-20T10:31:12;94744.31;;;14.20;54.38
43934;BME280;59081;42.706;23.306;2023-04-20T10:33:49;94810.41;;;14.70;55.30
43934;BME280;59081;42.706;23.306;2023-04-20T10:36:29;94794.28;;;15.21;53.86
43934;BME280;59081;42.706;23.306;2023-04-20T10:38:56;94765.38;;;15.43;52.23
43934;BME280;59081;42.706;23.306;2023-04-20T10:41:22;94854.50;;;16.18;52.26
43934;BME280;59081;42.706;23.306;2023-04-20T10:43:48;94763.19;;;15.61;51.16
43934;BME280;59081;42.706;23.306;2023-04-20T10:46:19;94707.38;;;15.01;51.51
43934;BME280;59081;42.706;23.306;2023-04-20T10:48:56;94828.31;;;16.40;50.46
43934;BME280;59081;42.706;23.306;2023-04-20T10:51:22;94824.88;;;16.65;50.41
43934;BME280;59081;42.706;23.306;2023-04-20T10:54:05;94792.16;;;16.40;50.44
43934;BME280;59081;42.706;23.306;2023-04-20T10:59:10;94832.44;;;16.64;49.61
43934;BME280;59081;42.706;23.306;2023-04-20T11:01:36;94765.28;;;15.81;49.59
43934;BME280;59081;42.706;23.306;2023-04-20T11:04:02;94703.09;;;15.00;50.81
43934;BME280;59081;42.706;23.306;2023-04-20T11:06:31;94796.75;;;16.08;50.57
43934;BME280;59081;42.706;23.306;2023-04-20T11:08:57;94765.44;;;16.07;50.23
43934;BME280;59081;42.706;23.306;2023-04-20T11:11:24;94805.81;;;16.58;48.77
43934;BME280;59081;42.706;23.306;2023-04-20T11:14:08;94867.31;;;17.00;47.94
43934;BME280;59081;42.706;23.306;2023-04-20T11:16:34;94861.56;;;17.24;46.44
43934;BME280;59081;42.706;23.306;2023-04-20T11:19:00;94838.25;;;17.22;46.38
43934;BME280;59081;42.706;23.306;2023-04-20T11:21:35;94702.72;;;16.61;46.47
43934;BME280;59081;42.706;23.306;2023-04-20T11:24:02;94844.63;;;17.48;46.01
43934;BME280;59081;42.706;23.306;2023-04-20T11:26:37;94678.25;;;16.05;46.93
43934;BME280;59081;42.706;23.306;2023-04-20T11:29:05;94642.75;;;15.74;47.12
43934;BME280;59081;42.706;23.306;2023-04-20T11:31:30;94657.03;;;15.66;47.29
43934;BME280;59081;42.706;23.306;2023-04-20T11:33:57;94750.59;;;16.30;46.80
43934;BME280;59081;42.706;23.306;2023-04-20T11:36:25;94695.81;;;15.96;47.43
43934;BME280;59081;42.706;23.306;2023-04-20T11:38:52;94761.31;;;16.58;46.92
43934;BME280;59081;42.706;23.306;2023-04-20T11:41:18;94681.25;;;16.01;47.21
43934;BME280;59081;42.706;23.306;2023-04-20T11:43:44;94832.81;;;16.72;47.35
43934;BME280;59081;42.706;23.306;2023-04-20T11:46:17;94797.97;;;16.56;47.14
43934;BME280;59081;42.706;23.306;2023-04-20T11:48:44;94671.47;;;15.71;47.56
43934;BME280;59081;42.706;23.306;2023-04-20T11:51:10;94831.72;;;16.84;48.39
43934;BME280;59081;42.706;23.306;2023-04-20T11:53:36;94715.84;;;16.20;47.73
43934;BME280;59081;42.706;23.306;2023-04-20T11:56:02;94691.09;;;16.02;47.93
43934;BME280;59081;42.706;23.306;2023-04-20T11:58:31;94656.91;;;15.76;48.50
43934;BME280;59081;42.706;23.306;2023-04-20T12:00:56;94658.19;;;15.45;48.19
43934;BME280;59081;42.706;23.306;2023-04-20T12:03:22;94720.88;;;15.52;49.33
43934;BME280;59081;42.706;23.306;2023-04-20T12:05:47;94616.53;;;14.66;50.76
43934;BME280;59081;42.706;23.306;2023-04-20T12:08:16;94772.31;;;15.09;51.59
43934;BME280;59081;42.706;23.306;2023-04-20T12:10:41;94683.56;;;14.41;52.35
43934;BME280;59081;42.706;23.306;2023-04-20T12:13:07;94749.00;;;14.62;53.69
43934;BME280;59081;42.706;23.306;2023-04-20T12:15:32;94703.97;;;14.05;54.30
43934;BME280;59081;42.706;23.306;2023-04-20T12:17:58;94846.41;;;14.93;54.76
43934;BME280;59081;42.706;23.306;2023-04-20T12:20:23;94821.06;;;14.62;55.94
43934;BME280;59081;42.706;23.306;2023-04-20T12:22:49;94639.81;;;13.16;56.21
43934;BME280;59081;42.706;23.306;2023-04-20T12:25:14;94735.09;;;13.67;57.64
43934;BME280;59081;42.706;23.306;2023-04-20T12:27:40;94726.56;;;13.37;56.57
43934;BME280;59081;42.706;23.306;2023-04-20T12:30:06;94711.84;;;13.31;57.20
43934;BME280;59081;42.706;23.306;2023-04-20T12:32:33;94693.00;;;13.53;56.88
43934;BME280;59081;42.706;23.306;2023-04-20T12:34:59;94706.75;;;13.39;56.61
43934;BME280;59081;42.706;23.306;2023-04-20T12:37:24;94828.88;;;14.49;56.49
43934;BME280;59081;42.706;23.306;2023-04-20T12:39:51;94695.06;;;13.77;57.18
43934;BME280;59081;42.706;23.306;2023-04-20T12:42:17;94773.84;;;14.95;55.66
43934;BME280;59081;42.706;23.306;2023-04-20T12:44:42;94760.03;;;16.18;51.96
43934;BME280;59081;42.706;23.306;2023-04-20T12:47:08;94769.41;;;16.76;50.68
43934;BME280;59081;42.706;23.306;2023-04-20T12:49:33;94807.84;;;17.64;48.74
43934;BME280;59081;42.706;23.306;2023-04-20T12:51:59;94813.97;;;18.31;46.63
43934;BME280;59081;42.706;23.306;2023-04-20T12:54:25;94748.22;;;18.19;44.26
43934;BME280;59081;42.706;23.306;2023-04-20T12:56:50;94741.09;;;17.76;43.90